Central, Alabama
Current Conditions -  °F | °C
As of 10:15 PM on Tuesday 21 Oct 2014 (Local Time) from KALX Reporting Station
Clear Clear  
Wind Chill: 59°   Ceiling: Unl
Heat Index: 59°   Visibility: 10mi
Dew Point: 55°   Wind: 3mph
Humidity: 86%   Direction: 10°N
Pressure: 30.04"   Gusts: NA
Location:  32.6638°N, 86.0276°W
Report Text: KALX 220315Z AUTO 01003KT 10SM CLR 15/13 A3004 RMK AO2 T01480125
Loading
Personal Weather Stations






























Interactive Weather Map
Tropical Storm Tracking
New forecast layout! Learn more

10-Day Weather Forecast

Advertisements
Track Severe Weather on mobile